White Pine, Tennessee
Current Conditions -  °F | °C
As of 3:15 PM on Friday 19 Dec 2014 (Local Time) from KMOR Reporting Station
Clear Clear  
Wind Chill: 45°   Ceiling: Unl
Heat Index: 45°   Visibility: 10mi
Dew Point: 23°   Wind: 0mph
Humidity: 43%   Direction: NA
Pressure: 30.14"   Gusts: NA
Location:  36.11°N, 83.29°W
Report Text: KMOR 192015Z AUTO 00000KT 10SM CLR 07/M05 A3014 RMK
Loading
Personal Weather Stations






























Interactive Weather Map New forecast layout! Learn more

10-Day Weather Forecast

Advertisements
Track Severe Weather on mobile